sensor_id;sensor_type;location;lat;lon;timestamp;P1;durP1;ratioP1;P2;durP2;ratioP2
7377;SDS011;3730;50.856;12.776;2023-06-04T00:00:43;2.57;;;1.93;;
7377;SDS011;3730;50.856;12.776;2023-06-04T00:03:09;2.50;;;2.07;;
7377;SDS011;3730;50.856;12.776;2023-06-04T00:05:35;5.10;;;2.17;;
7377;SDS011;3730;50.856;12.776;2023-06-04T00:08:00;4.53;;;2.60;;
7377;SDS011;3730;50.856;12.776;2023-06-04T00:10:26;3.13;;;2.67;;
7377;SDS011;3730;50.856;12.776;2023-06-04T00:12:52;4.43;;;2.90;;
7377;SDS011;3730;50.856;12.776;2023-06-04T00:15:18;3.17;;;2.40;;
7377;SDS011;3730;50.856;12.776;2023-06-04T00:17:43;4.73;;;2.93;;
7377;SDS011;3730;50.856;12.776;2023-06-04T00:20:09;6.13;;;2.67;;
7377;SDS011;3730;50.856;12.776;2023-06-04T00:22:36;3.00;;;2.70;;
7377;SDS011;3730;50.856;12.776;2023-06-04T00:25:02;3.97;;;2.37;;
7377;SDS011;3730;50.856;12.776;2023-06-04T00:27:28;5.10;;;2.20;;
7377;SDS011;3730;50.856;12.776;2023-06-04T00:29:54;2.73;;;2.10;;
7377;SDS011;3730;50.856;12.776;2023-06-04T00:32:19;3.90;;;2.20;;
7377;SDS011;3730;50.856;12.776;2023-06-04T00:34:52;3.00;;;2.20;;
7377;SDS011;3730;50.856;12.776;2023-06-04T00:37:21;2.90;;;2.10;;
7377;SDS011;3730;50.856;12.776;2023-06-04T00:39:47;2.83;;;2.20;;
7377;SDS011;3730;50.856;12.776;2023-06-04T00:42:13;2.00;;;1.80;;
7377;SDS011;3730;50.856;12.776;2023-06-04T00:44:39;2.60;;;2.10;;
7377;SDS011;3730;50.856;12.776;2023-06-04T00:47:09;2.10;;;1.90;;
7377;SDS011;3730;50.856;12.776;2023-06-04T00:49:37;1.80;;;1.70;;
7377;SDS011;3730;50.856;12.776;2023-06-04T00:52:03;2.20;;;1.87;;
7377;SDS011;3730;50.856;12.776;2023-06-04T00:54:30;2.17;;;1.87;;
7377;SDS011;3730;50.856;12.776;2023-06-04T00:56:58;3.67;;;2.10;;
7377;SDS011;3730;50.856;12.776;2023-06-04T00:59:24;2.27;;;1.90;;
7377;SDS011;3730;50.856;12.776;2023-06-04T01:02:23;5.47;;;2.30;;
7377;SDS011;3730;50.856;12.776;2023-06-04T01:05:07;2.77;;;2.37;;
7377;SDS011;3730;50.856;12.776;2023-06-04T01:07:37;4.33;;;2.57;;
7377;SDS011;3730;50.856;12.776;2023-06-04T01:10:05;3.50;;;2.37;;
7377;SDS011;3730;50.856;12.776;2023-06-04T01:12:31;5.10;;;2.63;;
7377;SDS011;3730;50.856;12.776;2023-06-04T01:14:57;3.23;;;2.53;;
7377;SDS011;3730;50.856;12.776;2023-06-04T01:20:16;4.10;;;2.93;;
7377;SDS011;3730;50.856;12.776;2023-06-04T01:25:36;3.03;;;2.73;;
7377;SDS011;3730;50.856;12.776;2023-06-04T01:28:04;3.23;;;2.93;;
7377;SDS011;3730;50.856;12.776;2023-06-04T01:30:40;3.70;;;3.20;;
7377;SDS011;3730;50.856;12.776;2023-06-04T01:33:11;3.00;;;2.63;;
7377;SDS011;3730;50.856;12.776;2023-06-04T01:35:37;3.00;;;2.70;;
7377;SDS011;3730;50.856;12.776;2023-06-04T01:38:03;3.03;;;2.73;;
7377;SDS011;3730;50.856;12.776;2023-06-04T01:40:29;6.10;;;3.10;;
7377;SDS011;3730;50.856;12.776;2023-06-04T01:42:55;4.30;;;3.57;;
7377;SDS011;3730;50.856;12.776;2023-06-04T01:45:22;3.50;;;3.20;;
7377;SDS011;3730;50.856;12.776;2023-06-04T01:47:48;4.20;;;2.90;;
7377;SDS011;3730;50.856;12.776;2023-06-04T01:50:14;6.43;;;3.40;;
7377;SDS011;3730;50.856;12.776;2023-06-04T01:52:42;4.03;;;3.23;;
7377;SDS011;3730;50.856;12.776;2023-06-04T01:55:09;3.50;;;3.00;;
7377;SDS011;3730;50.856;12.776;2023-06-04T01:57:37;3.57;;;2.83;;
7377;SDS011;3730;50.856;12.776;2023-06-04T02:00:07;5.07;;;3.10;;
7377;SDS011;3730;50.856;12.776;2023-06-04T02:02:34;3.73;;;2.77;;
7377;SDS011;3730;50.856;12.776;2023-06-04T02:05:01;3.17;;;2.87;;
7377;SDS011;3730;50.856;12.776;2023-06-04T02:07:27;4.23;;;3.30;;
7377;SDS011;3730;50.856;12.776;2023-06-04T02:09:53;4.20;;;3.30;;
7377;SDS011;3730;50.856;12.776;2023-06-04T02:12:19;4.13;;;2.97;;
7377;SDS011;3730;50.856;12.776;2023-06-04T02:14:45;3.30;;;3.00;;
7377;SDS011;3730;50.856;12.776;2023-06-04T02:17:12;3.57;;;3.10;;
7377;SDS011;3730;50.856;12.776;2023-06-04T02:19:41;3.20;;;2.90;;
7377;SDS011;3730;50.856;12.776;2023-06-04T02:22:18;4.63;;;3.07;;
7377;SDS011;3730;50.856;12.776;2023-06-04T02:24:44;3.53;;;3.20;;
7377;SDS011;3730;50.856;12.776;2023-06-04T02:27:11;4.30;;;3.43;;
7377;SDS011;3730;50.856;12.776;2023-06-04T02:29:38;5.20;;;3.20;;
7377;SDS011;3730;50.856;12.776;2023-06-04T02:32:04;5.57;;;3.23;;
7377;SDS011;3730;50.856;12.776;2023-06-04T02:34:30;3.50;;;3.20;;
7377;SDS011;3730;50.856;12.776;2023-06-04T02:36:56;3.43;;;3.13;;
7377;SDS011;3730;50.856;12.776;2023-06-04T02:39:23;4.57;;;3.30;;
7377;SDS011;3730;50.856;12.776;2023-06-04T02:41:49;4.53;;;3.20;;
7377;SDS011;3730;50.856;12.776;2023-06-04T02:44:15;3.30;;;3.00;;
7377;SDS011;3730;50.856;12.776;2023-06-04T02:46:41;4.77;;;2.80;;
7377;SDS011;3730;50.856;12.776;2023-06-04T02:49:08;2.97;;;2.67;;
7377;SDS011;3730;50.856;12.776;2023-06-04T02:51:34;5.77;;;2.63;;
7377;SDS011;3730;50.856;12.776;2023-06-04T02:54:00;3.97;;;2.47;;
7377;SDS011;3730;50.856;12.776;2023-06-04T02:56:26;3.07;;;2.33;;
7377;SDS011;3730;50.856;12.776;2023-06-04T02:58:52;4.87;;;2.83;;
7377;SDS011;3730;50.856;12.776;2023-06-04T03:01:20;5.20;;;2.60;;
7377;SDS011;3730;50.856;12.776;2023-06-04T03:03:46;3.63;;;2.27;;
7377;SDS011;3730;50.856;12.776;2023-06-04T03:06:13;3.80;;;2.30;;
7377;SDS011;3730;50.856;12.776;2023-06-04T03:08:39;4.97;;;2.47;;
7377;SDS011;3730;50.856;12.776;2023-06-04T03:11:05;3.37;;;2.40;;
7377;SDS011;3730;50.856;12.776;2023-06-04T03:13:31;3.53;;;2.57;;
7377;SDS011;3730;50.856;12.776;2023-06-04T03:15:57;2.93;;;2.30;;
7377;SDS011;3730;50.856;12.776;2023-06-04T03:18:26;4.13;;;2.20;;
7377;SDS011;3730;50.856;12.776;2023-06-04T03:20:53;4.50;;;2.40;;
7377;SDS011;3730;50.856;12.776;2023-06-04T03:23:19;3.07;;;2.47;;
7377;SDS011;3730;50.856;12.776;2023-06-04T03:25:45;3.77;;;2.10;;
7377;SDS011;3730;50.856;12.776;2023-06-04T03:28:11;5.33;;;2.07;;
7377;SDS011;3730;50.856;12.776;2023-06-04T03:30:37;2.97;;;2.00;;
7377;SDS011;3730;50.856;12.776;2023-06-04T03:33:03;2.67;;;1.97;;
7377;SDS011;3730;50.856;12.776;2023-06-04T03:35:29;2.13;;;1.90;;
7377;SDS011;3730;50.856;12.776;2023-06-04T03:37:55;3.03;;;2.63;;
7377;SDS011;3730;50.856;12.776;2023-06-04T03:40:21;2.47;;;2.00;;
7377;SDS011;3730;50.856;12.776;2023-06-04T03:42:47;3.00;;;2.20;;
7377;SDS011;3730;50.856;12.776;2023-06-04T03:45:13;3.93;;;1.90;;
7377;SDS011;3730;50.856;12.776;2023-06-04T03:47:39;2.40;;;1.80;;
7377;SDS011;3730;50.856;12.776;2023-06-04T03:50:05;1.93;;;1.70;;
7377;SDS011;3730;50.856;12.776;2023-06-04T03:52:31;3.43;;;2.00;;
7377;SDS011;3730;50.856;12.776;2023-06-04T03:54:58;3.80;;;1.60;;
7377;SDS011;3730;50.856;12.776;2023-06-04T03:57:24;2.17;;;1.97;;
7377;SDS011;3730;50.856;12.776;2023-06-04T03:59:50;2.27;;;1.73;;
7377;SDS011;3730;50.856;12.776;2023-06-04T04:02:16;1.67;;;1.57;;
7377;SDS011;3730;50.856;12.776;2023-06-04T04:04:44;3.30;;;1.80;;
7377;SDS011;3730;50.856;12.776;2023-06-04T04:07:10;1.80;;;1.60;;
7377;SDS011;3730;50.856;12.776;2023-06-04T04:09:36;2.27;;;2.07;;
7377;SDS011;3730;50.856;12.776;2023-06-04T04:12:03;2.43;;;1.73;;
7377;SDS011;3730;50.856;12.776;2023-06-04T04:14:29;3.43;;;1.80;;
7377;SDS011;3730;50.856;12.776;2023-06-04T04:16:55;2.43;;;1.70;;
7377;SDS011;3730;50.856;12.776;2023-06-04T04:19:21;4.03;;;1.87;;
7377;SDS011;3730;50.856;12.776;2023-06-04T04:21:47;3.30;;;2.00;;
7377;SDS011;3730;50.856;12.776;2023-06-04T04:24:23;2.57;;;1.90;;
7377;SDS011;3730;50.856;12.776;2023-06-04T04:26:49;2.07;;;1.80;;
7377;SDS011;3730;50.856;12.776;2023-06-04T04:29:18;2.30;;;2.10;;
7377;SDS011;3730;50.856;12.776;2023-06-04T04:31:47;2.60;;;2.40;;
7377;SDS011;3730;50.856;12.776;2023-06-04T04:34:13;6.57;;;3.60;;
7377;SDS011;3730;50.856;12.776;2023-06-04T04:36:40;5.47;;;3.63;;
7377;SDS011;3730;50.856;12.776;2023-06-04T04:39:06;6.63;;;3.60;;
7377;SDS011;3730;50.856;12.776;2023-06-04T04:41:32;6.20;;;4.33;;
7377;SDS011;3730;50.856;12.776;2023-06-04T04:44:04;8.43;;;5.90;;
7377;SDS011;3730;50.856;12.776;2023-06-04T04:46:30;8.77;;;5.60;;
7377;SDS011;3730;50.856;12.776;2023-06-04T04:48:56;8.93;;;6.63;;
7377;SDS011;3730;50.856;12.776;2023-06-04T04:51:22;9.47;;;6.83;;
7377;SDS011;3730;50.856;12.776;2023-06-04T04:53:48;7.70;;;6.00;;
7377;SDS011;3730;50.856;12.776;2023-06-04T04:56:15;5.70;;;5.00;;
7377;SDS011;3730;50.856;12.776;2023-06-04T04:58:41;6.90;;;4.80;;
7377;SDS011;3730;50.856;12.776;2023-06-04T05:01:07;6.73;;;4.40;;
7377;SDS011;3730;50.856;12.776;2023-06-04T05:03:33;6.90;;;4.57;;
7377;SDS011;3730;50.856;12.776;2023-06-04T05:05:59;7.70;;;4.63;;
7377;SDS011;3730;50.856;12.776;2023-06-04T05:08:25;6.10;;;4.40;;
7377;SDS011;3730;50.856;12.776;2023-06-04T05:10:51;7.37;;;4.20;;
7377;SDS011;3730;50.856;12.776;2023-06-04T05:13:17;7.13;;;3.97;;
7377;SDS011;3730;50.856;12.776;2023-06-04T05:15:44;5.90;;;4.23;;
7377;SDS011;3730;50.856;12.776;2023-06-04T05:18:10;4.50;;;3.60;;
7377;SDS011;3730;50.856;12.776;2023-06-04T05:20:36;3.83;;;3.30;;
7377;SDS011;3730;50.856;12.776;2023-06-04T05:23:02;3.80;;;3.07;;
7377;SDS011;3730;50.856;12.776;2023-06-04T05:25:29;4.37;;;3.03;;
7377;SDS011;3730;50.856;12.776;2023-06-04T05:27:56;3.07;;;2.80;;
7377;SDS011;3730;50.856;12.776;2023-06-04T05:30:21;4.00;;;2.80;;
7377;SDS011;3730;50.856;12.776;2023-06-04T05:32:47;3.00;;;2.67;;
7377;SDS011;3730;50.856;12.776;2023-06-04T05:35:15;3.27;;;2.70;;
7377;SDS011;3730;50.856;12.776;2023-06-04T05:37:41;3.73;;;2.50;;
7377;SDS011;3730;50.856;12.776;2023-06-04T05:40:07;3.17;;;2.30;;
7377;SDS011;3730;50.856;12.776;2023-06-04T05:42:34;2.73;;;2.27;;
7377;SDS011;3730;50.856;12.776;2023-06-04T05:45:00;3.00;;;1.87;;
7377;SDS011;3730;50.856;12.776;2023-06-04T05:47:27;3.60;;;2.40;;
7377;SDS011;3730;50.856;12.776;2023-06-04T05:49:56;3.03;;;1.97;;
7377;SDS011;3730;50.856;12.776;2023-06-04T05:52:23;2.63;;;1.97;;
7377;SDS011;3730;50.856;12.776;2023-06-04T05:54:49;5.40;;;1.90;;
7377;SDS011;3730;50.856;12.776;2023-06-04T05:57:15;3.27;;;2.10;;
7377;SDS011;3730;50.856;12.776;2023-06-04T05:59:41;4.30;;;2.00;;
7377;SDS011;3730;50.856;12.776;2023-06-04T06:02:07;5.07;;;2.40;;
7377;SDS011;3730;50.856;12.776;2023-06-04T06:04:33;2.30;;;2.00;;
7377;SDS011;3730;50.856;12.776;2023-06-04T06:06:59;3.40;;;2.00;;
7377;SDS011;3730;50.856;12.776;2023-06-04T06:09:25;2.70;;;2.20;;
7377;SDS011;3730;50.856;12.776;2023-06-04T06:11:51;2.50;;;2.13;;
7377;SDS011;3730;50.856;12.776;2023-06-04T06:14:17;2.20;;;2.00;;
7377;SDS011;3730;50.856;12.776;2023-06-04T06:16:42;3.50;;;1.97;;
7377;SDS011;3730;50.856;12.776;2023-06-04T06:19:08;3.80;;;2.27;;
7377;SDS011;3730;50.856;12.776;2023-06-04T06:21:36;2.53;;;1.80;;
7377;SDS011;3730;50.856;12.776;2023-06-04T06:24:02;4.27;;;2.00;;
7377;SDS011;3730;50.856;12.776;2023-06-04T06:26:28;2.33;;;2.10;;
7377;SDS011;3730;50.856;12.776;2023-06-04T06:28:55;3.70;;;2.07;;
7377;SDS011;3730;50.856;12.776;2023-06-04T06:31:21;2.77;;;2.00;;
7377;SDS011;3730;50.856;12.776;2023-06-04T06:33:46;2.37;;;2.17;;
7377;SDS011;3730;50.856;12.776;2023-06-04T06:36:12;2.77;;;1.90;;
7377;SDS011;3730;50.856;12.776;2023-06-04T06:38:38;3.07;;;2.20;;
7377;SDS011;3730;50.856;12.776;2023-06-04T06:41:04;3.33;;;1.80;;
7377;SDS011;3730;50.856;12.776;2023-06-04T06:43:30;7.00;;;2.40;;
7377;SDS011;3730;50.856;12.776;2023-06-04T06:45:57;3.37;;;2.17;;
7377;SDS011;3730;50.856;12.776;2023-06-04T06:48:23;4.23;;;2.13;;
7377;SDS011;3730;50.856;12.776;2023-06-04T06:50:48;3.40;;;2.40;;
7377;SDS011;3730;50.856;12.776;2023-06-04T06:53:14;3.23;;;2.60;;
7377;SDS011;3730;50.856;12.776;2023-06-04T06:55:40;2.73;;;2.23;;
7377;SDS011;3730;50.856;12.776;2023-06-04T06:58:05;2.97;;;2.47;;
7377;SDS011;3730;50.856;12.776;2023-06-04T07:00:31;2.67;;;2.13;;
7377;SDS011;3730;50.856;12.776;2023-06-04T07:02:57;2.70;;;2.40;;
7377;SDS011;3730;50.856;12.776;2023-06-04T07:05:22;2.47;;;1.83;;
7377;SDS011;3730;50.856;12.776;2023-06-04T07:07:48;4.23;;;2.23;;
7377;SDS011;3730;50.856;12.776;2023-06-04T07:10:14;4.83;;;2.20;;
7377;SDS011;3730;50.856;12.776;2023-06-04T07:12:40;3.33;;;2.00;;
7377;SDS011;3730;50.856;12.776;2023-06-04T07:15:06;2.80;;;1.93;;
7377;SDS011;3730;50.856;12.776;2023-06-04T07:17:34;2.27;;;1.77;;
7377;SDS011;3730;50.856;12.776;2023-06-04T07:20:00;2.83;;;1.80;;
7377;SDS011;3730;50.856;12.776;2023-06-04T07:22:26;3.07;;;2.00;;
7377;SDS011;3730;50.856;12.776;2023-06-04T07:24:52;2.33;;;1.53;;
7377;SDS011;3730;50.856;12.776;2023-06-04T07:27:18;2.37;;;1.63;;
7377;SDS011;3730;50.856;12.776;2023-06-04T07:29:44;3.10;;;1.70;;
7377;SDS011;3730;50.856;12.776;2023-06-04T07:32:10;5.60;;;1.97;;
7377;SDS011;3730;50.856;12.776;2023-06-04T07:34:37;3.80;;;1.60;;
7377;SDS011;3730;50.856;12.776;2023-06-04T07:37:03;2.80;;;1.70;;
7377;SDS011;3730;50.856;12.776;2023-06-04T07:39:30;2.43;;;1.57;;
7377;SDS011;3730;50.856;12.776;2023-06-04T07:41:56;1.50;;;1.40;;
7377;SDS011;3730;50.856;12.776;2023-06-04T07:44:22;3.27;;;1.60;;
7377;SDS011;3730;50.856;12.776;2023-06-04T07:46:47;2.43;;;1.67;;
7377;SDS011;3730;50.856;12.776;2023-06-04T07:49:13;2.70;;;1.50;;
7377;SDS011;3730;50.856;12.776;2023-06-04T07:51:39;3.87;;;1.57;;
7377;SDS011;3730;50.856;12.776;2023-06-04T07:54:05;2.77;;;1.80;;
7377;SDS011;3730;50.856;12.776;2023-06-04T07:56:31;4.67;;;1.30;;
7377;SDS011;3730;50.856;12.776;2023-06-04T07:58:56;2.33;;;1.77;;
7377;SDS011;3730;50.856;12.776;2023-06-04T08:01:22;2.00;;;1.40;;
7377;SDS011;3730;50.856;12.776;2023-06-04T08:03:49;3.23;;;1.63;;
7377;SDS011;3730;50.856;12.776;2023-06-04T08:06:15;1.50;;;1.23;;
7377;SDS011;3730;50.856;12.776;2023-06-04T08:08:44;1.87;;;1.67;;
7377;SDS011;3730;50.856;12.776;2023-06-04T08:11:14;2.23;;;1.67;;
7377;SDS011;3730;50.856;12.776;2023-06-04T08:13:40;2.33;;;1.53;;
7377;SDS011;3730;50.856;12.776;2023-06-04T08:16:06;2.43;;;1.57;;
7377;SDS011;3730;50.856;12.776;2023-06-04T08:18:32;1.50;;;1.40;;
7377;SDS011;3730;50.856;12.776;2023-06-04T08:20:58;2.17;;;1.40;;
7377;SDS011;3730;50.856;12.776;2023-06-04T08:23:23;1.63;;;1.53;;
7377;SDS011;3730;50.856;12.776;2023-06-04T08:25:49;2.60;;;1.50;;
7377;SDS011;3730;50.856;12.776;2023-06-04T08:28:15;2.53;;;1.70;;
7377;SDS011;3730;50.856;12.776;2023-06-04T08:30:42;3.03;;;1.60;;
7377;SDS011;3730;50.856;12.776;2023-06-04T08:33:08;2.10;;;1.53;;
7377;SDS011;3730;50.856;12.776;2023-06-04T08:35:33;1.80;;;1.70;;
7377;SDS011;3730;50.856;12.776;2023-06-04T08:37:59;3.17;;;1.70;;
7377;SDS011;3730;50.856;12.776;2023-06-04T08:40:24;2.60;;;1.80;;
7377;SDS011;3730;50.856;12.776;2023-06-04T08:42:50;3.13;;;2.00;;
7377;SDS011;3730;50.856;12.776;2023-06-04T08:45:23;4.30;;;2.30;;
7377;SDS011;3730;50.856;12.776;2023-06-04T08:47:49;2.97;;;1.47;;
7377;SDS011;3730;50.856;12.776;2023-06-04T08:50:19;2.87;;;1.53;;
7377;SDS011;3730;50.856;12.776;2023-06-04T08:52:47;3.70;;;1.60;;
7377;SDS011;3730;50.856;12.776;2023-06-04T08:55:13;1.87;;;1.50;;
7377;SDS011;3730;50.856;12.776;2023-06-04T08:57:39;2.93;;;1.33;;
7377;SDS011;3730;50.856;12.776;2023-06-04T09:00:06;2.13;;;1.70;;
7377;SDS011;3730;50.856;12.776;2023-06-04T09:02:34;1.90;;;1.53;;
7377;SDS011;3730;50.856;12.776;2023-06-04T09:05:02;2.07;;;1.60;;
7377;SDS011;3730;50.856;12.776;2023-06-04T09:07:29;2.10;;;1.70;;
7377;SDS011;3730;50.856;12.776;2023-06-04T09:09:56;2.73;;;1.50;;
7377;SDS011;3730;50.856;12.776;2023-06-04T09:12:23;3.27;;;1.60;;
7377;SDS011;3730;50.856;12.776;2023-06-04T09:14:50;1.77;;;1.47;;
7377;SDS011;3730;50.856;12.776;2023-06-04T09:17:20;2.77;;;1.50;;
7377;SDS011;3730;50.856;12.776;2023-06-04T09:19:50;5.50;;;1.40;;
7377;SDS011;3730;50.856;12.776;2023-06-04T09:22:16;2.53;;;1.77;;
7377;SDS011;3730;50.856;12.776;2023-06-04T09:24:43;2.90;;;1.50;;
7377;SDS011;3730;50.856;12.776;2023-06-04T09:27:18;3.30;;;1.40;;
7377;SDS011;3730;50.856;12.776;2023-06-04T09:30:03;3.70;;;1.27;;
7377;SDS011;3730;50.856;12.776;2023-06-04T09:32:30;3.30;;;1.57;;
7377;SDS011;3730;50.856;12.776;2023-06-04T09:35:08;1.60;;;1.30;;
7377;SDS011;3730;50.856;12.776;2023-06-04T09:37:36;1.50;;;1.40;;
7377;SDS011;3730;50.856;12.776;2023-06-04T09:40:02;2.43;;;1.40;;
7377;SDS011;3730;50.856;12.776;2023-06-04T09:42:30;2.07;;;1.10;;
7377;SDS011;3730;50.856;12.776;2023-06-04T09:44:55;1.90;;;1.40;;
7377;SDS011;3730;50.856;12.776;2023-06-04T09:47:23;2.20;;;1.50;;
7377;SDS011;3730;50.856;12.776;2023-06-04T09:49:49;4.33;;;1.50;;
7377;SDS011;3730;50.856;12.776;2023-06-04T09:52:16;1.47;;;1.37;;
7377;SDS011;3730;50.856;12.776;2023-06-04T09:54:42;2.57;;;1.37;;
7377;SDS011;3730;50.856;12.776;2023-06-04T09:57:17;2.80;;;1.73;;
7377;SDS011;3730;50.856;12.776;2023-06-04T09:59:44;2.27;;;1.30;;
7377;SDS011;3730;50.856;12.776;2023-06-04T10:02:12;1.93;;;1.40;;
7377;SDS011;3730;50.856;12.776;2023-06-04T10:04:41;3.27;;;1.20;;
7377;SDS011;3730;50.856;12.776;2023-06-04T10:07:09;2.20;;;1.30;;
7377;SDS011;3730;50.856;12.776;2023-06-04T10:09:38;2.10;;;1.50;;
7377;SDS011;3730;50.856;12.776;2023-06-04T10:12:10;2.03;;;1.70;;
7377;SDS011;3730;50.856;12.776;2023-06-04T10:14:41;1.57;;;1.40;;
7377;SDS011;3730;50.856;12.776;2023-06-04T10:17:08;2.10;;;1.50;;
7377;SDS011;3730;50.856;12.776;2023-06-04T10:19:35;2.83;;;1.50;;
7377;SDS011;3730;50.856;12.776;2023-06-04T10:22:04;3.13;;;1.60;;
7377;SDS011;3730;50.856;12.776;2023-06-04T10:24:30;2.93;;;1.37;;
7377;SDS011;3730;50.856;12.776;2023-06-04T10:26:59;3.30;;;1.40;;
7377;SDS011;3730;50.856;12.776;2023-06-04T10:29:25;4.23;;;1.43;;
7377;SDS011;3730;50.856;12.776;2023-06-04T10:31:55;2.60;;;1.47;;
7377;SDS011;3730;50.856;12.776;2023-06-04T10:34:21;3.43;;;1.47;;
7377;SDS011;3730;50.856;12.776;2023-06-04T10:36:47;1.20;;;1.10;;
7377;SDS011;3730;50.856;12.776;2023-06-04T10:39:13;4.70;;;1.57;;
7377;SDS011;3730;50.856;12.776;2023-06-04T10:41:40;3.43;;;1.63;;
7377;SDS011;3730;50.856;12.776;2023-06-04T10:44:06;2.73;;;1.60;;
7377;SDS011;3730;50.856;12.776;2023-06-04T10:46:39;1.80;;;1.27;;
7377;SDS011;3730;50.856;12.776;2023-06-04T10:49:09;2.63;;;1.30;;
7377;SDS011;3730;50.856;12.776;2023-06-04T10:51:39;2.73;;;1.33;;
7377;SDS011;3730;50.856;12.776;2023-06-04T10:54:05;2.17;;;1.40;;
7377;SDS011;3730;50.856;12.776;2023-06-04T10:56:32;4.30;;;1.23;;
7377;SDS011;3730;50.856;12.776;2023-06-04T10:59:12;2.70;;;1.33;;
7377;SDS011;3730;50.856;12.776;2023-06-04T11:01:39;1.33;;;1.10;;
7377;SDS011;3730;50.856;12.776;2023-06-04T11:04:05;3.40;;;1.40;;
7377;SDS011;3730;50.856;12.776;2023-06-04T11:06:31;2.03;;;1.43;;
7377;SDS011;3730;50.856;12.776;2023-06-04T11:09:03;1.47;;;1.20;;
7377;SDS011;3730;50.856;12.776;2023-06-04T11:11:30;3.63;;;1.57;;
7377;SDS011;3730;50.856;12.776;2023-06-04T11:14:06;3.80;;;1.37;;
7377;SDS011;3730;50.856;12.776;2023-06-04T11:16:32;2.57;;;1.47;;
7377;SDS011;3730;50.856;12.776;2023-06-04T11:18:58;1.60;;;1.50;;
7377;SDS011;3730;50.856;12.776;2023-06-04T11:21:24;4.33;;;1.50;;
7377;SDS011;3730;50.856;12.776;2023-06-04T11:23:59;2.10;;;1.80;;
7377;SDS011;3730;50.856;12.776;2023-06-04T11:26:35;2.83;;;1.73;;
7377;SDS011;3730;50.856;12.776;2023-06-04T11:29:02;1.57;;;1.30;;
7377;SDS011;3730;50.856;12.776;2023-06-04T11:31:40;1.40;;;1.30;;
7377;SDS011;3730;50.856;12.776;2023-06-04T11:34:07;1.47;;;1.37;;
7377;SDS011;3730;50.856;12.776;2023-06-04T11:36:33;2.10;;;1.30;;
7377;SDS011;3730;50.856;12.776;2023-06-04T11:39:01;1.70;;;1.50;;
7377;SDS011;3730;50.856;12.776;2023-06-04T11:41:32;1.47;;;1.37;;
7377;SDS011;3730;50.856;12.776;2023-06-04T11:44:00;3.53;;;1.33;;
7377;SDS011;3730;50.856;12.776;2023-06-04T11:46:26;1.50;;;1.27;;
7377;SDS011;3730;50.856;12.776;2023-06-04T11:48:52;1.40;;;1.30;;
7377;SDS011;3730;50.856;12.776;2023-06-04T11:51:19;3.03;;;1.43;;
7377;SDS011;3730;50.856;12.776;2023-06-04T11:53:46;2.87;;;1.47;;
7377;SDS011;3730;50.856;12.776;2023-06-04T11:56:12;1.77;;;1.47;;
7377;SDS011;3730;50.856;12.776;2023-06-04T11:58:38;4.13;;;1.23;;
7377;SDS011;3730;50.856;12.776;2023-06-04T12:01:06;4.23;;;1.27;;
7377;SDS011;3730;50.856;12.776;2023-06-04T12:08:44;1.40;;;1.30;;
7377;SDS011;3730;50.856;12.776;2023-06-04T12:11:21;3.10;;;1.60;;
7377;SDS011;3730;50.856;12.776;2023-06-04T12:13:47;1.80;;;1.40;;
7377;SDS011;3730;50.856;12.776;2023-06-04T12:16:16;3.57;;;1.50;;
7377;SDS011;3730;50.856;12.776;2023-06-04T12:18:42;2.33;;;1.40;;
7377;SDS011;3730;50.856;12.776;2023-06-04T12:21:21;1.83;;;1.50;;
7377;SDS011;3730;50.856;12.776;2023-06-04T12:23:51;1.30;;;1.20;;
7377;SDS011;3730;50.856;12.776;2023-06-04T12:26:21;2.33;;;1.50;;
7377;SDS011;3730;50.856;12.776;2023-06-04T12:28:58;2.67;;;1.70;;
7377;SDS011;3730;50.856;12.776;2023-06-04T12:31:24;2.00;;;1.70;;
7377;SDS011;3730;50.856;12.776;2023-06-04T12:33:50;1.77;;;1.60;;
7377;SDS011;3730;50.856;12.776;2023-06-04T12:36:16;2.57;;;1.43;;
7377;SDS011;3730;50.856;12.776;2023-06-04T12:38:42;1.40;;;1.30;;
7377;SDS011;3730;50.856;12.776;2023-06-04T12:41:08;8.07;;;1.60;;
7377;SDS011;3730;50.856;12.776;2023-06-04T12:43:34;1.37;;;1.27;;
7377;SDS011;3730;50.856;12.776;2023-06-04T12:46:02;1.53;;;1.30;;
7377;SDS011;3730;50.856;12.776;2023-06-04T12:48:28;1.60;;;1.30;;
7377;SDS011;3730;50.856;12.776;2023-06-04T12:50:54;1.93;;;1.50;;
7377;SDS011;3730;50.856;12.776;2023-06-04T12:53:20;1.50;;;1.40;;
7377;SDS011;3730;50.856;12.776;2023-06-04T12:55:46;3.60;;;1.40;;
7377;SDS011;3730;50.856;12.776;2023-06-04T12:58:12;1.73;;;1.40;;
7377;SDS011;3730;50.856;12.776;2023-06-04T13:00:37;2.77;;;1.60;;
7377;SDS011;3730;50.856;12.776;2023-06-04T13:03:03;5.90;;;1.60;;
7377;SDS011;3730;50.856;12.776;2023-06-04T13:05:30;3.40;;;1.80;;
7377;SDS011;3730;50.856;12.776;2023-06-04T13:07:56;1.97;;;1.77;;
7377;SDS011;3730;50.856;12.776;2023-06-04T13:10:23;3.67;;;1.80;;
7377;SDS011;3730;50.856;12.776;2023-06-04T13:12:49;1.50;;;1.40;;
7377;SDS011;3730;50.856;12.776;2023-06-04T13:15:15;2.00;;;1.80;;
7377;SDS011;3730;50.856;12.776;2023-06-04T13:17:41;5.63;;;1.70;;
7377;SDS011;3730;50.856;12.776;2023-06-04T13:20:07;3.87;;;1.60;;
7377;SDS011;3730;50.856;12.776;2023-06-04T13:22:34;2.43;;;1.80;;
7377;SDS011;3730;50.856;12.776;2023-06-04T13:25:01;1.70;;;1.60;;
7377;SDS011;3730;50.856;12.776;2023-06-04T13:27:27;2.80;;;1.60;;
7377;SDS011;3730;50.856;12.776;2023-06-04T13:29:53;4.70;;;1.50;;
7377;SDS011;3730;50.856;12.776;2023-06-04T13:32:19;2.53;;;1.53;;
7377;SDS011;3730;50.856;12.776;2023-06-04T13:34:45;1.60;;;1.50;;
7377;SDS011;3730;50.856;12.776;2023-06-04T13:37:11;1.98;;;1.60;;
7377;SDS011;3730;50.856;12.776;2023-06-04T13:39:37;1.75;;;1.50;;
7377;SDS011;3730;50.856;12.776;2023-06-04T13:42:03;4.00;;;1.70;;
7377;SDS011;3730;50.856;12.776;2023-06-04T13:44:30;1.58;;;1.48;;
7377;SDS011;3730;50.856;12.776;2023-06-04T13:46:58;2.10;;;1.60;;
7377;SDS011;3730;50.856;12.776;2023-06-04T13:49:24;4.85;;;1.30;;
7377;SDS011;3730;50.856;12.776;2023-06-04T13:51:50;3.13;;;1.60;;
7377;SDS011;3730;50.856;12.776;2023-06-04T13:54:16;1.50;;;1.40;;
7377;SDS011;3730;50.856;12.776;2023-06-04T13:56:43;1.55;;;1.45;;
7377;SDS011;3730;50.856;12.776;2023-06-04T13:59:09;2.15;;;1.65;;
7377;SDS011;3730;50.856;12.776;2023-06-04T14:01:35;2.50;;;1.50;;
7377;SDS011;3730;50.856;12.776;2023-06-04T14:04:01;2.28;;;1.70;;
7377;SDS011;3730;50.856;12.776;2023-06-04T14:06:31;3.42;;;1.50;;
7377;SDS011;3730;50.856;12.776;2023-06-04T14:08:57;1.52;;;1.40;;
7377;SDS011;3730;50.856;12.776;2023-06-04T14:11:23;1.73;;;1.48;;
7377;SDS011;3730;50.856;12.776;2023-06-04T14:13:49;2.63;;;1.70;;
7377;SDS011;3730;50.856;12.776;2023-06-04T14:16:15;1.48;;;1.38;;
7377;SDS011;3730;50.856;12.776;2023-06-04T14:18:41;1.58;;;1.48;;
7377;SDS011;3730;50.856;12.776;2023-06-04T14:21:07;2.75;;;1.60;;
7377;SDS011;3730;50.856;12.776;2023-06-04T14:23:33;1.40;;;1.30;;
7377;SDS011;3730;50.856;12.776;2023-06-04T14:26:00;1.20;;;1.20;;
7377;SDS011;3730;50.856;12.776;2023-06-04T14:28:26;2.75;;;1.60;;
7377;SDS011;3730;50.856;12.776;2023-06-04T14:30:52;3.35;;;1.45;;
7377;SDS011;3730;50.856;12.776;2023-06-04T14:33:18;1.92;;;1.50;;
7377;SDS011;3730;50.856;12.776;2023-06-04T14:35:44;2.25;;;1.80;;
7377;SDS011;3730;50.856;12.776;2023-06-04T14:38:12;2.97;;;1.67;;
7377;SDS011;3730;50.856;12.776;2023-06-04T14:40:39;3.05;;;1.52;;
7377;SDS011;3730;50.856;12.776;2023-06-04T14:43:06;2.15;;;1.50;;
7377;SDS011;3730;50.856;12.776;2023-06-04T14:45:32;3.30;;;2.38;;
7377;SDS011;3730;50.856;12.776;2023-06-04T14:47:58;4.97;;;1.50;;
7377;SDS011;3730;50.856;12.776;2023-06-04T14:50:24;2.05;;;1.70;;
7377;SDS011;3730;50.856;12.776;2023-06-04T14:52:50;2.45;;;1.60;;
7377;SDS011;3730;50.856;12.776;2023-06-04T14:55:16;1.48;;;1.38;;
7377;SDS011;3730;50.856;12.776;2023-06-04T14:57:42;2.03;;;1.55;;
7377;SDS011;3730;50.856;12.776;2023-06-04T15:00:08;1.90;;;1.70;;
7377;SDS011;3730;50.856;12.776;2023-06-04T15:02:34;1.83;;;1.52;;
7377;SDS011;3730;50.856;12.776;2023-06-04T15:05:00;3.28;;;1.58;;
7377;SDS011;3730;50.856;12.776;2023-06-04T15:07:26;2.85;;;1.48;;
7377;SDS011;3730;50.856;12.776;2023-06-04T15:09:52;1.98;;;1.60;;